createdAt,value
2017-07-25T00:00:27.542Z,100532.27
2017-07-25T00:02:53.909Z,100534.41
2017-07-25T00:05:20.282Z,100537.98
2017-07-25T00:07:46.707Z,100534.51
2017-07-25T00:10:13.075Z,100536.24
2017-07-25T00:12:39.463Z,100530.62
2017-07-25T00:15:05.827Z,100531.04
2017-07-25T00:17:32.967Z,100525.33
2017-07-25T00:19:59.412Z,100519.22
2017-07-25T00:22:25.790Z,100521.86
2017-07-25T00:24:52.203Z,100521.42
2017-07-25T00:27:18.573Z,100513.16
2017-07-25T00:29:44.983Z,100517.89
2017-07-25T00:32:11.402Z,100516.22
2017-07-25T00:34:37.802Z,100515.30
2017-07-25T00:37:04.170Z,100510.52
2017-07-25T00:39:30.567Z,100508.27
2017-07-25T00:41:56.960Z,100502.66
2017-07-25T00:44:23.371Z,100504.39
2017-07-25T00:46:49.743Z,100507.45
2017-07-25T00:49:16.119Z,100505.81
2017-07-25T00:51:42.472Z,100504.90
2017-07-25T00:54:08.854Z,100507.95
2017-07-25T00:56:35.218Z,100504.48
2017-07-25T00:59:01.594Z,100501.40
2017-07-25T01:01:27.974Z,100500.93
2017-07-25T01:03:54.490Z,100503.23
2017-07-25T01:06:20.915Z,100503.23
2017-07-25T01:08:47.303Z,100499.76
2017-07-25T01:11:13.695Z,100503.23
2017-07-25T01:13:40.824Z,100500.58
2017-07-25T01:16:07.243Z,100498.44
2017-07-25T01:18:33.642Z,100503.32
2017-07-25T01:21:00.019Z,100499.34
2017-07-25T01:23:26.382Z,100498.53
2017-07-25T01:25:52.779Z,100489.73
2017-07-25T01:28:19.139Z,100493.30
2017-07-25T01:30:45.508Z,100495.94
2017-07-25T01:33:12.631Z,100494.20
2017-07-25T01:35:39.015Z,100485.45
2017-07-25T01:38:05.391Z,100485.85
2017-07-25T01:40:32.031Z,100485.45
2017-07-25T01:42:58.551Z,100489.51
2017-07-25T01:45:24.918Z,100483.71
2017-07-25T01:47:51.295Z,100486.04
2017-07-25T01:50:17.663Z,100485.59
2017-07-25T01:52:44.040Z,100482.13
2017-07-25T01:55:10.406Z,100485.59
2017-07-25T01:57:36.795Z,100491.39
2017-07-25T02:00:03.915Z,100484.78
2017-07-25T02:02:30.279Z,100485.28
2017-07-25T02:04:56.647Z,100486.61
2017-07-25T02:07:23.787Z,100484.78
2017-07-25T02:09:50.151Z,100487.92
2017-07-25T02:12:16.515Z,100487.52
2017-07-25T02:14:43.666Z,100483.13
2017-07-25T02:17:10.031Z,100481.88
2017-07-25T02:19:37.163Z,100473.93
2017-07-25T02:22:03.531Z,100479.16
2017-07-25T02:24:29.894Z,100484.97
2017-07-25T02:26:57.021Z,100482.78
2017-07-25T02:29:23.390Z,100480.14
2017-07-25T02:31:49.760Z,100480.55
2017-07-25T02:34:16.898Z,100477.99
2017-07-25T02:36:43.318Z,100477.99
2017-07-25T02:39:09.671Z,100480.14
2017-07-25T02:41:36.065Z,100479.32
2017-07-25T02:44:02.436Z,100478.50
2017-07-25T02:46:28.802Z,100475.84
2017-07-25T02:48:55.196Z,100482.88
2017-07-25T02:51:21.563Z,100479.83
2017-07-25T02:53:47.945Z,100484.20
2017-07-25T02:56:14.334Z,100479.00
2017-07-25T02:58:40.703Z,100478.59
2017-07-25T03:01:07.089Z,100476.86
2017-07-25T03:03:33.450Z,100478.18
2017-07-25T03:05:59.837Z,100473.70
2017-07-25T03:08:26.202Z,100479.92
2017-07-25T03:10:52.564Z,100480.39
2017-07-25T03:13:18.940Z,100481.71
2017-07-25T03:15:45.347Z,100478.24
2017-07-25T03:18:11.751Z,100474.27
2017-07-25T03:20:38.135Z,100482.31
2017-07-25T03:23:04.515Z,100483.22
2017-07-25T03:25:30.880Z,100481.39
2017-07-25T03:27:58.062Z,100480.58
2017-07-25T03:30:24.448Z,100477.11
2017-07-25T03:32:50.809Z,100478.34
2017-07-25T03:35:17.212Z,100477.11
2017-07-25T03:37:43.586Z,100479.75
2017-07-25T03:40:09.947Z,100479.75
2017-07-25T03:42:36.312Z,100478.02
2017-07-25T03:45:02.668Z,100481.55
2017-07-25T03:47:29.037Z,100482.81
2017-07-25T03:49:55.396Z,100480.73
2017-07-25T03:52:22.563Z,100482.88
2017-07-25T03:54:49.686Z,100481.64
2017-07-25T03:57:16.052Z,100474.11
2017-07-25T03:59:42.409Z,100467.99
2017-07-25T04:02:08.809Z,100473.29
2017-07-25T04:04:35.199Z,100473.29
2017-07-25T04:07:01.565Z,100471.14
2017-07-25T04:09:27.962Z,100471.96
2017-07-25T04:11:54.323Z,100474.70
2017-07-25T04:14:20.697Z,100475.11
2017-07-25T04:16:47.081Z,100473.80
2017-07-25T04:19:13.442Z,100476.94
2017-07-25T04:21:39.839Z,100474.36
2017-07-25T04:24:06.206Z,100467.73
2017-07-25T04:26:32.630Z,100470.39
2017-07-25T04:28:58.983Z,100468.66
2017-07-25T04:31:25.371Z,100462.95
2017-07-25T04:33:52.511Z,100461.63
2017-07-25T04:36:18.879Z,100462.95
2017-07-25T04:38:45.322Z,100465.18
2017-07-25T04:41:11.688Z,100462.53
2017-07-25T04:43:38.067Z,100468.75
2017-07-25T04:46:04.447Z,100467.02
2017-07-25T04:48:30.827Z,100467.92
2017-07-25T04:50:57.198Z,100464.42
2017-07-25T04:53:24.346Z,100458.28
2017-07-25T04:55:50.710Z,100466.63
2017-07-25T04:58:17.879Z,100467.95
2017-07-25T05:00:45.014Z,100460.02
2017-07-25T05:03:11.394Z,100457.87
2017-07-25T05:05:38.537Z,100468.45
2017-07-25T05:08:04.907Z,100463.16
2017-07-25T05:10:32.219Z,100463.66
2017-07-25T05:12:58.595Z,100463.58
2017-07-25T05:15:24.976Z,100467.64
2017-07-25T05:17:52.240Z,100470.28
2017-07-25T05:20:18.617Z,100469.78
2017-07-25T05:22:45.146Z,100465.40
2017-07-25T05:25:11.516Z,100469.38
2017-07-25T05:27:38.028Z,100461.11
2017-07-25T05:30:04.396Z,100467.23
2017-07-25T05:32:30.931Z,100465.08
2017-07-25T05:34:57.407Z,100461.99
2017-07-25T05:37:24.567Z,100461.11
2017-07-25T05:39:50.926Z,100458.53
2017-07-25T05:42:18.107Z,100461.17
2017-07-25T05:44:44.467Z,100458.94
2017-07-25T05:47:10.854Z,100463.82
2017-07-25T05:49:37.247Z,100464.33
2017-07-25T05:52:03.611Z,100460.77
2017-07-25T05:54:30.011Z,100457.70
2017-07-25T05:59:29.191Z,100456.47
2017-07-25T06:01:55.580Z,100457.20
2017-07-25T06:04:21.951Z,100456.38
2017-07-25T06:06:48.356Z,100447.53
2017-07-25T06:09:14.744Z,100451.91
2017-07-25T06:11:41.319Z,100454.14
2017-07-25T06:14:07.815Z,100448.34
2017-07-25T06:16:34.542Z,100453.48
2017-07-25T06:19:01.895Z,100455.09
2017-07-25T06:21:28.270Z,100448.10
2017-07-25T06:23:55.399Z,100449.39
2017-07-25T06:26:21.784Z,100446.34
2017-07-25T06:28:48.933Z,100447.28
2017-07-25T06:31:16.524Z,100440.16
2017-07-25T06:33:42.885Z,100441.08
2017-07-25T06:36:10.028Z,100435.37
2017-07-25T06:38:36.414Z,100431.40
2017-07-25T06:41:02.802Z,100432.72
2017-07-25T06:43:29.187Z,100436.19
2017-07-25T06:45:55.587Z,100429.16
2017-07-25T06:48:21.956Z,100423.87
2017-07-25T06:50:48.324Z,100427.02
2017-07-25T06:53:14.687Z,100425.70
2017-07-25T06:55:41.054Z,100428.34
2017-07-25T06:58:08.226Z,100426.61
2017-07-25T07:00:34.601Z,100431.90
2017-07-25T07:03:00.972Z,100429.66
2017-07-25T07:05:27.362Z,100423.96
2017-07-25T07:07:53.719Z,100434.55
2017-07-25T07:10:20.091Z,100436.78
2017-07-25T07:12:46.460Z,100441.17
2017-07-25T07:15:12.838Z,100430.16
2017-07-25T07:17:39.201Z,100429.25
2017-07-25T07:20:05.683Z,100438.61
2017-07-25T07:22:32.104Z,100435.37
2017-07-25T07:24:58.479Z,100427.42
2017-07-25T07:27:26.243Z,100432.22
2017-07-25T07:29:53.132Z,100437.48
2017-07-25T07:32:19.479Z,100437.48
2017-07-25T07:34:45.897Z,100434.14
2017-07-25T07:37:13.035Z,100435.47
2017-07-25T07:39:39.382Z,100440.35
2017-07-25T07:42:05.789Z,100437.70
2017-07-25T07:44:32.187Z,100439.12
2017-07-25T07:46:58.550Z,100439.94
2017-07-25T07:49:24.952Z,100446.97
2017-07-25T07:51:51.319Z,100439.94
2017-07-25T07:54:17.715Z,100443.09
2017-07-25T07:56:44.847Z,100443.91
2017-07-25T07:59:11.212Z,100450.53
2017-07-25T08:01:37.607Z,100454.09
2017-07-25T08:04:04.001Z,100449.62
2017-07-25T08:06:30.479Z,100456.65
2017-07-25T08:08:56.896Z,100457.09
2017-07-25T08:11:23.269Z,100455.27
2017-07-25T08:13:49.638Z,100455.32
2017-07-25T08:16:16.019Z,100455.27
2017-07-25T08:18:42.362Z,100457.41
2017-07-25T08:21:08.743Z,100460.81
2017-07-25T08:23:35.114Z,100454.92
2017-07-25T08:26:01.534Z,100456.24
2017-07-25T08:28:27.903Z,100452.27
2017-07-25T08:30:54.318Z,100454.83
2017-07-25T08:33:20.764Z,100449.12
2017-07-25T08:35:47.156Z,100449.88
2017-07-25T08:38:13.640Z,100453.84
2017-07-25T08:40:39.998Z,100444.81
2017-07-25T08:43:07.160Z,100447.23
2017-07-25T08:45:34.295Z,100449.47
2017-07-25T08:48:00.666Z,100440.20
2017-07-25T08:50:27.816Z,100446.88
2017-07-25T08:52:54.255Z,100444.64
2017-07-25T08:55:20.620Z,100439.86
2017-07-25T08:57:47.465Z,100444.23
2017-07-25T09:00:13.837Z,100448.62
2017-07-25T09:02:40.218Z,100441.18
2017-07-25T09:05:06.588Z,100446.83
2017-07-25T09:07:32.957Z,100441.94
2017-07-25T09:09:59.328Z,100438.88
2017-07-25T09:12:25.718Z,100436.23
2017-07-25T09:14:52.119Z,100437.55
2017-07-25T09:17:18.487Z,100437.55
2017-07-25T09:19:44.870Z,100437.55
2017-07-25T09:22:11.234Z,100443.77
2017-07-25T09:24:37.608Z,100447.73
2017-07-25T09:27:03.962Z,100446.88
2017-07-25T09:29:30.315Z,100444.23
2017-07-25T09:31:56.710Z,100439.45
2017-07-25T09:34:23.071Z,100438.53
2017-07-25T09:36:49.455Z,100430.17
2017-07-25T09:39:15.823Z,100429.27
2017-07-25T09:41:42.238Z,100431.50
2017-07-25T09:44:08.608Z,100422.33
2017-07-25T09:46:34.994Z,100421.42
2017-07-25T09:49:01.360Z,100416.53
2017-07-25T09:51:27.731Z,100412.97
2017-07-25T09:53:54.116Z,100414.80
2017-07-25T09:56:20.475Z,100404.72
2017-07-25T09:58:47.636Z,100408.18
2017-07-25T10:01:13.999Z,100412.05
2017-07-25T10:03:40.379Z,100413.89
2017-07-25T10:06:06.759Z,100410.42
2017-07-25T10:08:33.130Z,100414.39
2017-07-25T10:10:59.679Z,100414.39
2017-07-25T10:13:26.226Z,100413.98
2017-07-25T10:15:52.599Z,100418.77
2017-07-25T10:18:18.967Z,100417.13
2017-07-25T10:20:45.355Z,100410.98
2017-07-25T10:23:11.723Z,100410.57
2017-07-25T10:25:38.107Z,100407.92
2017-07-25T10:28:05.238Z,100409.25
2017-07-25T10:30:31.595Z,100400.89
2017-07-25T10:32:57.992Z,100404.46
2017-07-25T10:35:25.115Z,100404.36
2017-07-25T10:37:51.503Z,100393.45
2017-07-25T10:40:18.628Z,100392.55
2017-07-25T10:42:45.026Z,100388.58
2017-07-25T10:45:12.188Z,100383.69
2017-07-25T10:47:39.342Z,100384.20
2017-07-25T10:50:06.523Z,100384.61
2017-07-25T10:52:33.643Z,100378.48
2017-07-25T10:55:00.014Z,100381.95
2017-07-25T10:57:26.403Z,100374.52
2017-07-25T10:59:52.779Z,100367.90
2017-07-25T11:02:19.350Z,100362.67
2017-07-25T11:04:45.720Z,100365.31
2017-07-25T11:07:12.087Z,100370.20
2017-07-25T11:09:38.459Z,100361.84
2017-07-25T11:12:04.844Z,100363.58
2017-07-25T11:17:03.938Z,100361.84
2017-07-25T11:19:31.086Z,100354.82
2017-07-25T11:21:57.456Z,100354.82
2017-07-25T11:24:24.579Z,100354.51
2017-07-25T11:26:50.953Z,100357.88
2017-07-25T11:29:17.371Z,100360.53
2017-07-25T11:31:43.736Z,100366.23
2017-07-25T11:34:10.144Z,100386.94
2017-07-25T11:36:36.511Z,100382.46
2017-07-25T11:39:02.874Z,100385.92
2017-07-25T11:41:29.231Z,100372.03
2017-07-25T11:43:55.617Z,100370.70
2017-07-25T11:46:22.747Z,100372.19
2017-07-25T11:48:49.148Z,100369.54
2017-07-25T11:51:16.279Z,100367.72
2017-07-25T11:53:42.635Z,100367.72
2017-07-25T11:56:09.050Z,100359.77
2017-07-25T11:58:35.422Z,100359.77
2017-07-25T12:01:01.793Z,100359.30
2017-07-25T12:03:28.158Z,100362.86
2017-07-25T12:05:54.532Z,100354.41
2017-07-25T12:08:20.893Z,100349.84
2017-07-25T12:10:47.278Z,100352.91
2017-07-25T12:13:13.655Z,100351.11
2017-07-25T12:15:40.080Z,100350.50
2017-07-25T12:18:06.456Z,100346.03
2017-07-25T12:20:33.847Z,100349.59
2017-07-25T12:23:00.202Z,100343.89
2017-07-25T12:25:26.564Z,100341.14
2017-07-25T12:27:52.922Z,100339.34
2017-07-25T12:30:19.291Z,100337.11
2017-07-25T12:32:45.662Z,100333.55
2017-07-25T12:35:12.796Z,100337.02
2017-07-25T12:37:39.176Z,100329.83
2017-07-25T12:40:05.592Z,100329.32
2017-07-25T12:42:32.152Z,100333.20
2017-07-25T12:44:58.510Z,100352.96
2017-07-25T12:47:24.885Z,100360.91
2017-07-25T12:49:51.263Z,100349.91
2017-07-25T12:52:17.679Z,100342.53
2017-07-25T12:54:44.050Z,100343.38
2017-07-25T12:57:10.420Z,100340.80
2017-07-25T12:59:36.792Z,100332.03
2017-07-25T13:02:03.152Z,100328.87
2017-07-25T13:04:29.516Z,100338.15
2017-07-25T13:06:55.899Z,100336.26
2017-07-25T13:09:22.267Z,100333.52
2017-07-25T13:11:48.659Z,100337.08
2017-07-25T13:14:15.030Z,100341.20
2017-07-25T13:16:41.414Z,100337.73
2017-07-25T13:19:07.779Z,100338.66
2017-07-25T13:21:34.144Z,100339.16
2017-07-25T13:24:00.540Z,100344.36
2017-07-25T13:26:26.902Z,100339.16
2017-07-25T13:28:53.272Z,100341.30
2017-07-25T13:31:19.661Z,100343.95
2017-07-25T13:33:46.030Z,100340.38
2017-07-25T13:36:13.158Z,100336.51
2017-07-25T13:38:39.560Z,100343.13
2017-07-25T13:41:06.692Z,100341.20
2017-07-25T13:43:33.063Z,100342.12
2017-07-25T13:46:00.236Z,100338.71
2017-07-25T13:48:27.367Z,100339.97
2017-07-25T13:50:53.844Z,100345.08
2017-07-25T13:53:20.245Z,100343.85
2017-07-25T13:55:46.614Z,100343.03
2017-07-25T13:58:12.980Z,100348.08
2017-07-25T14:00:39.364Z,100339.63
2017-07-25T14:03:05.763Z,100343.28
2017-07-25T14:05:32.147Z,100336.25
2017-07-25T14:07:58.526Z,100346.50
2017-07-25T14:10:24.904Z,100341.20
2017-07-25T14:12:51.289Z,100339.38
2017-07-25T14:15:17.659Z,100332.69
2017-07-25T14:17:44.808Z,100328.30
2017-07-25T14:20:11.905Z,100327.39
2017-07-25T14:22:38.285Z,100325.66
2017-07-25T14:25:04.611Z,100330.45
2017-07-25T14:27:30.977Z,100330.45
2017-07-25T14:29:57.372Z,100322.82
2017-07-25T14:32:24.612Z,100331.27
2017-07-25T14:34:51.028Z,100325.37
2017-07-25T14:37:17.392Z,100330.92
2017-07-25T14:39:43.776Z,100336.56
2017-07-25T14:42:10.139Z,100330.41
2017-07-25T14:44:36.495Z,100333.00
2017-07-25T14:47:03.658Z,100327.30
2017-07-25T14:49:30.802Z,100330.26
2017-07-25T14:51:57.173Z,100331.08
2017-07-25T14:54:24.348Z,100333.72
2017-07-25T14:56:51.500Z,100331.02
2017-07-25T14:59:17.872Z,100330.09
2017-07-25T15:01:45.036Z,100335.86
2017-07-25T15:04:12.175Z,100330.00
2017-07-25T15:06:38.506Z,100332.05
2017-07-25T15:09:04.868Z,100334.70
2017-07-25T15:11:31.246Z,100330.73
2017-07-25T15:13:58.394Z,100332.90
2017-07-25T15:16:24.760Z,100327.60
2017-07-25T15:18:51.126Z,100334.12
2017-07-25T15:21:17.493Z,100330.91
2017-07-25T15:23:43.904Z,100324.25
2017-07-25T15:26:10.297Z,100335.34
2017-07-25T15:28:36.659Z,100321.86
2017-07-25T15:31:03.068Z,100322.11
2017-07-25T15:33:30.201Z,100315.33
2017-07-25T15:35:56.584Z,100316.72
2017-07-25T15:38:23.823Z,100316.91
2017-07-25T15:40:50.208Z,100312.27
2017-07-25T15:43:16.598Z,100307.70
2017-07-25T15:45:42.977Z,100301.23
2017-07-25T15:48:09.359Z,100300.09
2017-07-25T15:50:36.495Z,100298.43
2017-07-25T15:53:02.858Z,100300.16
2017-07-25T15:55:29.244Z,100297.11
2017-07-25T15:57:55.639Z,100299.75
2017-07-25T16:00:22.028Z,100297.20
2017-07-25T16:02:48.428Z,100295.47
2017-07-25T16:05:14.812Z,100295.47
2017-07-25T16:07:41.243Z,100293.23
2017-07-25T16:10:07.630Z,100292.00
2017-07-25T16:12:34.004Z,100292.98
2017-07-25T16:15:00.387Z,100294.30
2017-07-25T16:17:26.773Z,100298.69
2017-07-25T16:19:53.899Z,100292.67
2017-07-25T16:22:20.322Z,100297.97
2017-07-25T16:24:46.685Z,100287.38
2017-07-25T16:27:13.050Z,100280.41
2017-07-25T16:32:12.010Z,100269.41
2017-07-25T16:34:38.387Z,100276.02
2017-07-25T16:37:04.756Z,100273.38
2017-07-25T16:39:31.130Z,100268.17
2017-07-25T16:41:57.499Z,100267.86
2017-07-25T16:44:23.870Z,100270.92
2017-07-25T16:46:50.287Z,100265.69
2017-07-25T16:49:16.664Z,100263.48
2017-07-25T16:51:43.023Z,100264.36
2017-07-25T16:54:10.190Z,100264.05
2017-07-25T16:56:37.493Z,100260.99
2017-07-25T16:59:03.896Z,100256.11
2017-07-25T17:01:30.275Z,100249.99
2017-07-25T17:03:57.411Z,100252.23
2017-07-25T17:06:23.792Z,100252.23
2017-07-25T17:08:50.167Z,100247.09
2017-07-25T17:11:16.559Z,100252.39
2017-07-25T17:13:42.926Z,100250.66
2017-07-25T17:16:09.311Z,100245.36
2017-07-25T17:18:35.708Z,100237.98
2017-07-25T17:21:02.085Z,100236.26
2017-07-25T17:23:29.240Z,100229.06
2017-07-25T17:25:55.609Z,100230.20
2017-07-25T17:28:22.003Z,100223.36
2017-07-25T17:30:48.377Z,100217.15
2017-07-25T17:33:14.747Z,100223.17
2017-07-25T17:35:41.308Z,100222.84
2017-07-25T17:38:07.680Z,100221.77
2017-07-25T17:40:34.047Z,100218.88
2017-07-25T17:43:00.426Z,100224.59
2017-07-25T17:45:26.796Z,100219.39
2017-07-25T17:47:53.972Z,100215.58
2017-07-25T17:50:21.111Z,100217.31
2017-07-25T17:52:47.467Z,100219.14
2017-07-25T17:55:13.852Z,100219.39
2017-07-25T17:57:40.219Z,100215.05
2017-07-25T18:00:06.595Z,100229.56
2017-07-25T18:02:32.975Z,100225.02
2017-07-25T18:04:59.340Z,100227.51
2017-07-25T18:07:25.710Z,100218.96
2017-07-25T18:09:52.095Z,100223.25
2017-07-25T18:12:18.481Z,100218.60
2017-07-25T18:14:45.627Z,100226.80
2017-07-25T18:17:12.008Z,100213.45
2017-07-25T18:19:38.376Z,100219.81
2017-07-25T18:22:04.741Z,100222.35
2017-07-25T18:24:31.111Z,100221.58
2017-07-25T18:26:57.475Z,100230.45
2017-07-25T18:29:23.850Z,100239.41
2017-07-25T18:31:50.240Z,100236.01
2017-07-25T18:34:16.623Z,100248.34
2017-07-25T18:36:42.999Z,100244.36
2017-07-25T18:39:09.724Z,100232.03
2017-07-25T18:41:36.224Z,100237.84
2017-07-25T18:44:02.600Z,100237.43
2017-07-25T18:46:28.998Z,100239.26
2017-07-25T18:48:56.142Z,100238.34
2017-07-25T18:51:22.527Z,100244.05
2017-07-25T18:53:49.659Z,100248.02
2017-07-25T18:56:16.940Z,100243.64
2017-07-25T18:58:43.326Z,100249.45
2017-07-25T19:01:09.737Z,100252.91
2017-07-25T19:03:36.200Z,100245.88
2017-07-25T19:06:02.691Z,100254.75
2017-07-25T19:08:29.136Z,100254.75
2017-07-25T19:10:55.537Z,100262.19
2017-07-25T19:13:21.928Z,100264.42
2017-07-25T19:15:48.414Z,100267.08
2017-07-25T19:18:14.921Z,100272.47
2017-07-25T19:20:41.475Z,100272.03
2017-07-25T19:23:08.658Z,100274.20
2017-07-25T19:25:35.064Z,100276.92
2017-07-25T19:28:01.480Z,100279.50
2017-07-25T19:30:28.033Z,100275.13
2017-07-25T19:32:54.621Z,100285.72
2017-07-25T19:35:21.032Z,100279.09
2017-07-25T19:37:47.432Z,100275.53
2017-07-25T19:40:13.973Z,100282.97
2017-07-25T19:42:41.139Z,100275.44
2017-07-25T19:45:07.551Z,100274.52
2017-07-25T19:47:33.944Z,100285.36
2017-07-25T19:50:00.589Z,100286.27
2017-07-25T19:52:27.936Z,100288.73
2017-07-25T19:54:54.381Z,100293.12
2017-07-25T19:57:20.866Z,100294.78
2017-07-25T19:59:48.188Z,100286.73
2017-07-25T20:02:14.596Z,100294.69
2017-07-25T20:04:41.001Z,100299.84
2017-07-25T20:07:07.467Z,100300.59
2017-07-25T20:09:33.839Z,100299.94
2017-07-25T20:12:00.236Z,100302.75
2017-07-25T20:14:26.615Z,100303.36
2017-07-25T20:16:53.005Z,100310.08
2017-07-25T20:19:19.562Z,100313.39
2017-07-25T20:21:45.939Z,100316.55
2017-07-25T20:24:12.341Z,100317.02
2017-07-25T20:26:38.750Z,100319.67
2017-07-25T20:29:05.125Z,100318.03
2017-07-25T20:31:31.522Z,100316.30
2017-07-25T20:33:57.910Z,100323.84
2017-07-25T20:36:24.277Z,100326.55
2017-07-25T20:38:50.680Z,100321.69
2017-07-25T20:41:17.804Z,100323.59
2017-07-25T20:43:44.180Z,100320.94
2017-07-25T20:46:10.557Z,100324.50
2017-07-25T20:48:36.932Z,100336.52
2017-07-25T20:51:03.310Z,100328.16
2017-07-25T20:53:29.702Z,100329.14
2017-07-25T20:55:56.123Z,100329.55
2017-07-25T20:58:23.279Z,100326.90
2017-07-25T21:00:49.721Z,100327.00
2017-07-25T21:03:16.127Z,100331.06
2017-07-25T21:05:42.511Z,100333.71
2017-07-25T21:08:08.919Z,100334.19
2017-07-25T21:10:35.292Z,100339.89
2017-07-25T21:13:01.664Z,100339.58
2017-07-25T21:15:28.028Z,100339.58
2017-07-25T21:17:54.399Z,100343.05
2017-07-25T21:20:20.795Z,100341.56
2017-07-25T21:22:47.176Z,100339.33
2017-07-25T21:25:13.656Z,100343.96
2017-07-25T21:27:40.183Z,100342.83
2017-07-25T21:30:08.411Z,100345.13
2017-07-25T21:32:34.977Z,100349.20
2017-07-25T21:35:02.358Z,100349.27
2017-07-25T21:37:30.135Z,100348.44
2017-07-25T21:39:56.575Z,100343.75
2017-07-25T21:42:23.077Z,100342.42
2017-07-25T21:44:49.646Z,100348.63
2017-07-25T21:47:16.096Z,100342.48
2017-07-25T21:49:42.641Z,100346.97
2017-07-25T21:52:09.019Z,100338.20
2017-07-25T21:54:35.386Z,100341.35
2017-07-25T21:57:01.779Z,100346.30
2017-07-25T21:59:28.140Z,100347.62
2017-07-25T22:01:54.503Z,100349.46
2017-07-25T22:04:21.091Z,100349.65
2017-07-25T22:06:48.239Z,100356.68
2017-07-25T22:09:14.623Z,100350.13
2017-07-25T22:11:41.035Z,100353.69
2017-07-25T22:14:07.441Z,100347.66
2017-07-25T22:16:33.832Z,100352.55
2017-07-25T22:19:00.232Z,100350.31
2017-07-25T22:21:26.602Z,100345.02
2017-07-25T22:23:52.994Z,100343.85
2017-07-25T22:26:19.376Z,100346.50
2017-07-25T22:28:45.750Z,100347.32
2017-07-25T22:31:12.195Z,100344.77
2017-07-25T22:33:38.711Z,100346.09
2017-07-25T22:36:05.492Z,100342.63
2017-07-25T22:38:31.939Z,100342.21
2017-07-25T22:40:58.319Z,100344.01
2017-07-25T22:43:24.691Z,100348.48
2017-07-25T22:45:51.077Z,100352.96
2017-07-25T22:48:17.439Z,100355.20
2017-07-25T22:50:43.977Z,100352.23
2017-07-25T22:53:11.106Z,100357.53
2017-07-25T22:55:37.475Z,100348.42
2017-07-25T22:58:04.607Z,100356.78
2017-07-25T23:00:30.974Z,100356.36
2017-07-25T23:02:57.383Z,100360.66
2017-07-25T23:05:23.752Z,100359.93
2017-07-25T23:07:50.135Z,100358.20
2017-07-25T23:10:16.536Z,100361.31
2017-07-25T23:12:42.903Z,100366.55
2017-07-25T23:15:09.287Z,100363.14
2017-07-25T23:17:35.650Z,100363.23
2017-07-25T23:20:02.800Z,100357.53
2017-07-25T23:22:29.162Z,100354.98
2017-07-25T23:24:56.329Z,100361.59
2017-07-25T23:27:23.467Z,100360.75
2017-07-25T23:29:49.820Z,100363.90
2017-07-25T23:32:16.208Z,100361.25
2017-07-25T23:34:43.343Z,100364.31
2017-07-25T23:37:09.725Z,100367.47
2017-07-25T23:39:36.870Z,100369.70
2017-07-25T23:42:03.224Z,100376.82
2017-07-25T23:44:30.386Z,100376.41
2017-07-25T23:46:56.741Z,100373.77
2017-07-25T23:49:23.114Z,100379.13
2017-07-25T23:51:49.482Z,100372.50
2017-07-25T23:54:15.883Z,100379.13
2017-07-25T23:56:42.235Z,100374.23
2017-07-25T23:59:08.592Z,100376.98
